Time;durP1;ratioP1;P1;durP2;ratioP2;P2;SDS_P1;SDS_P2;PMS_P1;PMS_P2;Temp;Humidity;BMP_temperature;BMP_pressure;BME280_temperature;BME280_humidity;BME280_pressure;Samples;Min_cycle;Max_cycle;Signal;HPM_P1;HPM_P2
2022/05/02 00:00:08;;;;;;;5.40;4.33;;;7.80;99.90;;;;;;5042933;28;20194;-79
2022/05/02 00:02:35;;;;;;;7.97;4.43;;;7.90;99.90;;;;;;5043481;28;20225;-79
2022/05/02 00:05:01;;;;;;;5.00;3.87;;;8.00;99.90;;;;;;5044416;28;20205;-79
2022/05/02 00:07:27;;;;;;;5.00;4.30;;;8.00;99.90;;;;;;5028740;28;20193;-78
2022/05/02 00:09:53;;;;;;;6.93;4.60;;;8.00;99.90;;;;;;5044423;28;20187;-80
2022/05/02 00:12:18;;;;;;;6.00;4.73;;;8.00;99.90;;;;;;5029161;28;20219;-79
2022/05/02 00:14:44;;;;;;;6.03;4.33;;;8.00;99.90;;;;;;5028917;28;20210;-78
2022/05/02 00:17:10;;;;;;;5.47;4.53;;;8.00;99.90;;;;;;5043276;28;20179;-80
2022/05/02 00:19:35;;;;;;;5.90;4.83;;;8.00;99.90;;;;;;5029098;28;20673;-79
2022/05/02 00:22:01;;;;;;;5.43;4.27;;;8.00;99.90;;;;;;5043126;28;20214;-80
2022/05/02 00:24:26;;;;;;;6.70;4.90;;;8.10;99.90;;;;;;5029251;28;20226;-79
2022/05/02 00:26:52;;;;;;;6.47;5.17;;;8.10;99.90;;;;;;5028373;28;20182;-79
2022/05/02 00:29:18;;;;;;;5.43;4.50;;;8.20;99.90;;;;;;5043963;28;20186;-78
2022/05/02 00:31:45;;;;;;;7.60;4.97;;;8.30;99.90;;;;;;5043385;28;20207;-80
2022/05/02 00:34:12;;;;;;;5.73;4.50;;;8.20;99.90;;;;;;5043929;28;20182;-78
2022/05/02 00:36:38;;;;;;;5.03;4.53;;;8.20;99.90;;;;;;5043663;28;20187;-79
2022/05/02 00:39:03;;;;;;;5.57;5.00;;;8.20;99.90;;;;;;5043802;28;20201;-79
2022/05/02 00:41:29;;;;;;;5.53;4.83;;;8.20;99.90;;;;;;5028487;28;20210;-80
2022/05/02 00:43:55;;;;;;;5.83;4.70;;;8.20;99.90;;;;;;5044003;28;20206;-78
2022/05/02 00:46:23;;;;;;;6.50;5.00;;;8.10;99.90;;;;;;5043623;28;20182;-81
2022/05/02 00:48:49;;;;;;;6.83;4.60;;;8.20;99.90;;;;;;5041809;28;20187;-79
2022/05/02 00:51:16;;;;;;;6.73;4.83;;;8.20;99.90;;;;;;5041928;28;20230;-80
2022/05/02 00:53:43;;;;;;;7.07;4.80;;;8.40;99.90;;;;;;5027038;28;20288;-81
2022/05/02 00:56:09;;;;;;;5.90;4.97;;;8.40;99.90;;;;;;5041932;28;20264;-80
2022/05/02 00:58:36;;;;;;;4.90;4.40;;;8.40;99.90;;;;;;5026400;28;20683;-79
2022/05/02 01:01:03;;;;;;;5.60;4.80;;;8.40;99.90;;;;;;5027351;28;20218;-80
2022/05/02 01:03:29;;;;;;;6.47;4.87;;;8.40;99.90;;;;;;5026664;28;20214;-81
2022/05/02 01:08:39;;;;;;;5.47;4.87;;;8.40;99.90;;;;;;5026707;28;20218;-77
2022/05/02 01:11:05;;;;;;;5.10;4.60;;;8.50;99.90;;;;;;5042871;28;21154;-81
2022/05/02 01:13:42;;;;;;;5.33;4.80;;;8.50;99.90;;;;;;5027094;28;20195;-79
2022/05/02 01:16:12;;;;;;;5.47;4.90;;;8.50;99.90;;;;;;5042753;28;20197;-79
2022/05/02 01:18:38;;;;;;;6.07;4.70;;;8.50;99.90;;;;;;5042379;28;20207;-79
2022/05/02 01:21:30;;;;;;;5.43;4.90;;;8.50;99.90;;;;;;5044700;28;20241;-78
2022/05/02 01:23:59;;;;;;;5.77;5.17;;;8.40;99.90;;;;;;5027344;28;20677;-78
2022/05/02 01:26:24;;;;;;;7.10;5.17;;;8.50;99.90;;;;;;5029232;28;20190;-79
2022/05/02 01:28:54;;;;;;;6.10;5.50;;;8.50;99.90;;;;;;5028721;28;20448;-78
2022/05/02 01:31:20;;;;;;;6.23;5.47;;;8.50;99.90;;;;;;5028764;28;20230;-77
2022/05/02 01:33:47;;;;;;;5.67;5.07;;;8.50;99.90;;;;;;5029005;28;20194;-78
2022/05/02 01:36:14;;;;;;;6.53;5.10;;;8.60;99.90;;;;;;5027623;28;20178;-79
2022/05/02 01:38:39;;;;;;;5.43;4.70;;;8.70;99.90;;;;;;5043734;28;20186;-77
2022/05/02 01:41:07;;;;;;;6.73;4.70;;;8.70;99.90;;;;;;5029133;28;20272;-78
2022/05/02 01:43:33;;;;;;;6.60;5.20;;;8.80;99.90;;;;;;5043723;28;20307;-78
2022/05/02 01:45:59;;;;;;;4.83;4.33;;;8.80;99.90;;;;;;5029017;28;20217;-78
2022/05/02 01:48:26;;;;;;;5.27;4.37;;;8.90;99.90;;;;;;5043047;28;20218;-79
2022/05/02 01:50:52;;;;;;;7.60;4.80;;;9.00;99.90;;;;;;5043930;28;20282;-78
2022/05/02 01:53:17;;;;;;;4.93;4.43;;;9.00;99.90;;;;;;5043767;28;20274;-79
2022/05/02 01:55:43;;;;;;;6.63;5.30;;;8.90;99.90;;;;;;5028850;28;20195;-78
2022/05/02 01:58:08;;;;;;;5.10;4.57;;;9.00;99.90;;;;;;5028001;28;20182;-78
2022/05/02 02:00:34;;;;;;;6.03;5.03;;;8.90;99.90;;;;;;5043863;28;20223;-79
2022/05/02 02:03:00;;;;;;;5.67;4.77;;;8.90;99.90;;;;;;5043364;28;20233;-78
2022/05/02 02:08:27;;;;;;;5.97;4.73;;;9.00;99.90;;;;;;4998294;28;20187;-81
2022/05/02 02:10:59;;;;;;;5.70;5.03;;;9.00;99.90;;;;;;5022716;28;20211;-81
2022/05/02 02:13:25;;;;;;;5.83;4.53;;;9.00;99.90;;;;;;5045014;28;20649;-81
2022/05/02 02:15:52;;;;;;;8.27;5.30;;;9.00;99.90;;;;;;5045719;28;20278;-77
2022/05/02 02:18:18;;;;;;;5.83;4.67;;;8.90;99.90;;;;;;5044701;28;20206;-79
2022/05/02 02:20:47;;;;;;;7.20;5.30;;;8.90;99.90;;;;;;5029747;28;20296;-81
2022/05/02 02:23:13;;;;;;;6.00;4.87;;;8.90;99.90;;;;;;5044669;28;20234;-78
2022/05/02 02:25:40;;;;;;;4.50;4.03;;;9.00;99.90;;;;;;5045624;28;20179;-81
2022/05/02 02:28:06;;;;;;;6.03;5.40;;;8.90;99.90;;;;;;5044672;28;20190;-81
2022/05/02 02:30:32;;;;;;;5.90;5.30;;;8.90;99.90;;;;;;5044223;28;20198;-78
2022/05/02 02:32:59;;;;;;;6.03;5.13;;;8.80;99.90;;;;;;5044150;28;20692;-81
2022/05/02 02:35:25;;;;;;;7.57;5.30;;;8.80;99.90;;;;;;5029802;28;20194;-81
2022/05/02 02:37:51;;;;;;;6.27;5.27;;;8.80;99.90;;;;;;5044622;28;20282;-77
2022/05/02 02:40:17;;;;;;;7.77;5.33;;;8.80;99.90;;;;;;5029943;28;20675;-79
2022/05/02 02:42:43;;;;;;;7.00;5.40;;;8.80;99.90;;;;;;5028891;28;20282;-77
2022/05/02 02:45:09;;;;;;;6.83;5.40;;;8.70;99.90;;;;;;5044938;28;20314;-81
2022/05/02 02:47:35;;;;;;;6.10;5.50;;;8.70;99.90;;;;;;5029174;28;20696;-78
2022/05/02 02:50:00;;;;;;;6.57;5.70;;;8.70;99.90;;;;;;5044734;28;20183;-79
2022/05/02 02:52:26;;;;;;;6.13;5.53;;;8.70;99.90;;;;;;5043863;28;20207;-81
2022/05/02 02:54:52;;;;;;;5.30;4.80;;;8.70;99.90;;;;;;5045340;28;20246;-79
2022/05/02 02:57:17;;;;;;;6.33;5.73;;;8.70;99.90;;;;;;5043803;28;20278;-80
2022/05/02 02:59:43;;;;;;;8.00;5.67;;;8.70;99.90;;;;;;5027647;28;20587;-80
2022/05/02 03:02:09;;;;;;;6.53;5.73;;;8.70;99.90;;;;;;5029217;28;20210;-78
2022/05/02 03:07:24;;;;;;;6.63;5.90;;;8.70;99.90;;;;;;5028744;28;20198;-79
2022/05/02 03:09:50;;;;;;;6.63;5.80;;;8.70;99.90;;;;;;5044054;28;21068;-78
2022/05/02 03:12:16;;;;;;;7.60;6.13;;;8.70;99.90;;;;;;5028416;28;20222;-77
2022/05/02 03:14:41;;;;;;;7.60;6.33;;;8.70;99.90;;;;;;5044082;28;20187;-80
2022/05/02 03:17:07;;;;;;;6.67;5.77;;;8.70;99.90;;;;;;5043795;28;20189;-81
2022/05/02 03:19:32;;;;;;;6.60;6.00;;;8.70;99.90;;;;;;5044264;28;20269;-80
2022/05/02 03:21:58;;;;;;;9.03;6.23;;;8.70;99.90;;;;;;5029035;28;20632;-80
2022/05/02 03:24:23;;;;;;;6.83;6.10;;;8.70;99.90;;;;;;5029126;28;20761;-78
2022/05/02 03:26:49;;;;;;;6.80;6.10;;;8.70;99.90;;;;;;5043594;28;20198;-80
2022/05/02 03:29:15;;;;;;;6.77;5.87;;;8.70;99.90;;;;;;5029140;28;20183;-80
2022/05/02 03:31:40;;;;;;;7.40;6.33;;;8.60;99.90;;;;;;5043151;28;20230;-79
2022/05/02 03:34:06;;;;;;;7.50;6.43;;;8.60;99.90;;;;;;5029460;28;20247;-78
2022/05/02 03:36:31;;;;;;;8.50;6.70;;;8.50;99.90;;;;;;5028516;28;20766;-82
2022/05/02 03:38:57;;;;;;;7.57;6.03;;;8.40;99.90;;;;;;5043706;28;20186;-78
2022/05/02 03:41:22;;;;;;;7.80;6.20;;;8.40;99.90;;;;;;5028654;28;20309;-79
2022/05/02 03:43:48;;;;;;;7.27;6.57;;;8.40;99.90;;;;;;5042958;28;20687;-77
2022/05/02 03:46:14;;;;;;;7.10;5.70;;;8.40;99.90;;;;;;5043355;28;20183;-80
2022/05/02 03:48:39;;;;;;;6.70;5.57;;;8.50;99.90;;;;;;5028109;28;20187;-79
2022/05/02 03:51:05;;;;;;;7.97;6.30;;;8.60;99.90;;;;;;5029188;28;20217;-80
2022/05/02 03:53:30;;;;;;;6.73;5.83;;;8.50;99.90;;;;;;5027720;28;20260;-81
2022/05/02 03:55:56;;;;;;;6.87;6.00;;;8.60;99.90;;;;;;5043009;28;20186;-79
2022/05/02 03:58:22;;;;;;;7.53;5.80;;;8.60;99.90;;;;;;5042483;28;20671;-79
2022/05/02 04:00:48;;;;;;;8.93;6.03;;;8.60;99.90;;;;;;5043968;28;20198;-82
2022/05/02 04:03:14;;;;;;;7.07;5.80;;;8.50;99.90;;;;;;5043337;28;20292;-79
2022/05/02 04:05:40;;;;;;;5.83;5.23;;;8.60;99.90;;;;;;5043237;28;20193;-79
2022/05/02 04:08:06;;;;;;;8.53;5.67;;;8.70;99.90;;;;;;5042306;28;20653;-78
2022/05/02 04:10:31;;;;;;;6.47;5.77;;;8.70;99.90;;;;;;5028424;28;20191;-78
2022/05/02 04:12:57;;;;;;;6.63;5.73;;;8.60;99.90;;;;;;5026543;28;20334;-82
2022/05/02 04:15:23;;;;;;;7.80;5.90;;;8.60;99.90;;;;;;5026558;28;20191;-78
2022/05/02 04:17:48;;;;;;;6.80;5.60;;;8.60;99.90;;;;;;5040628;28;20193;-79
2022/05/02 04:20:14;;;;;;;7.27;5.70;;;8.60;99.90;;;;;;5025740;28;20273;-79
2022/05/02 04:22:41;;;;;;;6.00;5.40;;;8.50;99.90;;;;;;5042805;28;20561;-80
2022/05/02 04:25:07;;;;;;;6.40;5.80;;;8.60;99.90;;;;;;5027969;28;20183;-79
2022/05/02 04:27:34;;;;;;;6.40;5.50;;;8.70;99.90;;;;;;5043372;28;20565;-78
2022/05/02 04:30:00;;;;;;;6.60;5.80;;;8.70;99.90;;;;;;5040351;28;20186;-79
2022/05/02 04:32:26;;;;;;;6.37;4.90;;;8.70;99.90;;;;;;5025180;28;20656;-77
2022/05/02 04:34:58;;;;;;;6.40;5.43;;;8.70;99.90;;;;;;5040764;28;20711;-78
2022/05/02 04:37:24;;;;;;;6.13;5.37;;;8.80;99.90;;;;;;5040807;28;20265;-78
2022/05/02 04:39:50;;;;;;;6.43;5.73;;;8.80;99.90;;;;;;5025526;28;20270;-78
2022/05/02 04:42:15;;;;;;;7.30;5.03;;;9.00;99.90;;;;;;5025516;28;20202;-78
2022/05/02 04:44:41;;;;;;;7.43;5.77;;;9.00;99.90;;;;;;5025974;28;20819;-79
2022/05/02 04:47:07;;;;;;;8.93;5.67;;;8.90;99.90;;;;;;5041374;28;20185;-78
2022/05/02 04:49:32;;;;;;;6.43;5.67;;;9.00;99.90;;;;;;5026463;28;20178;-79
2022/05/02 04:51:58;;;;;;;6.77;5.70;;;9.10;99.90;;;;;;5040707;28;20554;-78
2022/05/02 04:54:23;;;;;;;5.93;5.07;;;9.20;99.90;;;;;;5026549;28;20182;-78
2022/05/02 04:56:49;;;;;;;5.97;5.13;;;9.30;99.90;;;;;;5045700;28;20715;-79
2022/05/02 04:59:15;;;;;;;6.97;5.53;;;9.30;99.90;;;;;;5046061;28;20209;-80
2022/05/02 05:01:41;;;;;;;5.97;5.37;;;9.50;99.90;;;;;;5045461;28;20219;-78
2022/05/02 05:04:06;;;;;;;6.50;5.57;;;9.60;99.90;;;;;;5045655;28;20649;-79
2022/05/02 05:06:32;;;;;;;6.00;5.03;;;9.70;99.90;;;;;;5044583;28;20221;-79
2022/05/02 05:08:58;;;;;;;7.63;5.93;;;10.00;99.90;;;;;;5030318;28;20221;-78
2022/05/02 05:11:47;;;;;;;6.70;5.30;;;10.30;99.90;;;;;;5045058;28;20214;-78
2022/05/02 05:17:33;;;;;;;5.30;4.80;;;10.80;99.90;;;;;;5028827;28;20675;-78
2022/05/02 05:20:43;;;;;;;5.10;4.53;;;11.00;99.90;;;;;;5029592;28;20179;-80
2022/05/02 05:23:30;;;;;;;5.65;4.45;;;11.20;99.90;;;;;;5027562;28;20256;-79
2022/05/02 05:26:10;;;;;;;4.82;4.13;;;11.30;99.90;;;;;;5044764;28;20233;-79
2022/05/02 05:28:35;;;;;;;5.38;4.10;;;11.40;99.90;;;;;;5043876;28;20229;-79
2022/05/02 05:31:13;;;;;;;4.43;4.03;;;11.60;99.90;;;;;;5044393;28;21082;-79
2022/05/02 05:33:55;;;;;;;5.93;4.00;;;11.70;99.90;;;;;;5043723;28;20186;-80
2022/05/02 05:36:58;;;;;;;4.03;3.63;;;11.80;99.90;;;;;;5043971;28;21100;-80
2022/05/02 05:39:49;;;;;;;5.07;4.00;;;11.80;99.90;;;;;;5028911;28;20190;-78
2022/05/02 05:42:20;;;;;;;3.83;3.50;;;12.10;99.90;;;;;;5044615;28;20698;-79
2022/05/02 05:45:03;;;;;;;5.57;3.67;;;13.10;99.90;;;;;;5045392;28;20610;-79
2022/05/02 05:47:53;;;;;;;4.45;3.35;;;14.00;99.90;;;;;;5044583;28;20265;-79
2022/05/02 05:50:29;;;;;;;4.00;3.53;;;14.80;99.90;;;;;;5045635;28;20182;-81
2022/05/02 05:53:05;;;;;;;5.82;3.20;;;15.30;99.90;;;;;;5028970;28;20206;-78
2022/05/02 05:55:39;;;;;;;4.05;3.17;;;15.50;99.90;;;;;;5043284;28;20183;-80
2022/05/02 05:58:16;;;;;;;5.63;3.28;;;15.90;99.90;;;;;;5043641;28;20179;-78
2022/05/02 06:00:45;;;;;;;4.60;2.72;;;15.80;99.90;;;;;;5028808;28;20210;-81
2022/05/02 06:03:24;;;;;;;5.03;3.00;;;16.00;99.90;;;;;;5029789;28;20213;-79
2022/05/02 06:05:49;;;;;;;3.35;3.00;;;16.00;99.90;;;;;;5030015;28;20546;-81
2022/05/02 06:08:20;;;;;;;4.85;2.83;;;16.60;99.90;;;;;;5027813;28;20190;-80
2022/05/02 06:10:47;;;;;;;3.88;3.55;;;16.60;99.90;;;;;;5044403;28;20244;-79
2022/05/02 06:13:16;;;;;;;3.45;3.05;;;16.70;99.90;;;;;;5044428;28;20245;-80
2022/05/02 06:18:34;;;;;;;3.75;3.40;;;15.80;99.90;;;;;;5029163;28;20561;-78
2022/05/02 06:21:04;;;;;;;4.32;3.40;;;15.00;99.90;;;;;;5027360;28;20266;-80
2022/05/02 06:23:35;;;;;;;4.47;3.58;;;14.50;99.90;;;;;;5028853;28;20221;-78
2022/05/02 06:26:02;;;;;;;5.75;3.60;;;14.10;99.90;;;;;;5028310;28;20388;-80
2022/05/02 06:28:54;;;;;;;5.22;3.70;;;13.80;99.90;;;;;;5029848;28;20186;-79
2022/05/02 06:31:24;;;;;;;5.45;3.75;;;13.80;99.90;;;;;;5021100;28;20215;-81
2022/05/02 06:33:51;;;;;;;6.10;3.47;;;13.70;99.90;;;;;;5044802;28;20182;-81
2022/05/02 06:36:35;;;;;;;4.70;4.15;;;13.70;99.90;;;;;;5028565;28;20233;-78
2022/05/02 06:39:16;;;;;;;5.80;4.13;;;13.80;99.90;;;;;;5043835;28;20191;-80
2022/05/02 06:42:10;;;;;;;6.43;4.57;;;13.80;99.90;;;;;;5043257;28;20234;-78
2022/05/02 06:45:01;;;;;;;5.07;4.05;;;13.70;99.90;;;;;;5045092;28;20756;-79
2022/05/02 06:47:51;;;;;;;4.60;4.07;;;13.50;99.90;;;;;;5031836;28;20179;-79
2022/05/02 06:50:20;;;;;;;6.30;4.25;;;13.50;99.90;;;;;;5029355;28;20193;-79
2022/05/02 06:53:16;;;;;;;4.47;3.75;;;13.50;99.90;;;;;;5031616;28;20207;-79
2022/05/02 06:55:58;;;;;;;4.35;3.60;;;13.60;99.90;;;;;;5030556;28;20570;-80
2022/05/02 06:58:39;;;;;;;4.85;4.18;;;13.90;99.90;;;;;;5027618;28;20186;-80
2022/05/02 07:01:28;;;;;;;4.32;3.80;;;14.00;99.90;;;;;;5042432;28;20843;-82
2022/05/02 07:04:11;;;;;;;5.22;3.90;;;14.10;99.90;;;;;;5026503;28;20198;-80
2022/05/02 07:06:58;;;;;;;5.72;4.03;;;14.10;99.90;;;;;;5041840;28;20183;-81
2022/05/02 07:09:45;;;;;;;6.00;3.97;;;14.30;99.90;;;;;;5024391;28;20250;-81
2022/05/02 07:12:17;;;;;;;4.28;3.90;;;14.40;99.90;;;;;;5041194;28;20350;-82
2022/05/02 07:15:01;;;;;;;4.85;3.80;;;14.50;99.90;;;;;;5042962;28;20198;-81
2022/05/02 07:17:29;;;;;;;4.32;3.95;;;14.60;99.90;;;;;;5041688;28;20186;-83
2022/05/02 07:20:32;;;;;;;4.55;3.50;;;15.00;99.90;;;;;;5041621;28;20363;-84
2022/05/02 07:23:04;;;;;;;5.20;4.40;;;15.20;99.90;;;;;;5023699;28;20229;-81
2022/05/02 07:25:31;;;;;;;4.15;3.60;;;15.00;99.90;;;;;;5025436;28;20183;-81
2022/05/02 07:28:12;;;;;;;5.75;3.58;;;15.20;99.90;;;;;;5039496;28;20683;-81
2022/05/02 07:30:39;;;;;;;4.40;3.85;;;15.40;99.90;;;;;;5039937;28;20183;-81
2022/05/02 07:33:08;;;;;;;5.72;4.03;;;15.60;99.90;;;;;;5024032;28;20211;-83
2022/05/02 07:35:35;;;;;;;6.97;4.10;;;15.70;99.90;;;;;;5024201;28;20389;-81
2022/05/02 07:38:02;;;;;;;5.35;3.83;;;15.90;99.90;;;;;;5024251;28;20182;-81
2022/05/02 07:40:29;;;;;;;6.72;3.90;;;16.00;99.90;;;;;;5039689;28;20193;-81
2022/05/02 07:42:56;;;;;;;4.20;3.75;;;16.20;99.90;;;;;;5038838;28;20264;-81
2022/05/02 07:45:27;;;;;;;5.60;4.20;;;16.20;99.90;;;;;;5039632;28;20274;-84
2022/05/02 07:47:55;;;;;;;4.10;3.70;;;16.00;99.90;;;;;;5038798;28;20222;-83
2022/05/02 07:50:23;;;;;;;5.18;3.85;;;15.70;99.90;;;;;;5039761;28;20266;-82
2022/05/02 07:52:51;;;;;;;4.72;3.65;;;15.70;99.90;;;;;;5039235;28;20202;-83
2022/05/02 07:55:21;;;;;;;6.45;3.92;;;15.70;99.90;;;;;;5022760;28;20190;-82
2022/05/02 07:58:09;;;;;;;4.60;3.80;;;15.50;99.90;;;;;;5045493;28;20209;-80
2022/05/02 08:00:34;;;;;;;3.70;3.40;;;15.20;99.90;;;;;;5024406;28;20187;-81
2022/05/02 08:03:00;;;;;;;4.80;3.47;;;15.10;99.90;;;;;;5038979;28;20213;-82
2022/05/02 08:05:28;;;;;;;4.80;3.80;;;15.00;99.90;;;;;;5039930;28;20183;-81
2022/05/02 08:08:01;;;;;;;6.18;4.45;;;14.90;99.90;;;;;;5037733;28;20202;-82
2022/05/02 08:10:42;;;;;;;4.80;4.30;;;14.90;99.90;;;;;;5038384;28;20183;-81
2022/05/02 08:13:19;;;;;;;4.45;4.05;;;15.00;99.90;;;;;;5038010;28;20210;-81
2022/05/02 08:15:50;;;;;;;4.72;3.60;;;15.20;99.90;;;;;;5038341;28;20205;-81
2022/05/02 08:18:27;;;;;;;5.00;4.50;;;15.10;99.90;;;;;;5037850;28;20178;-81
2022/05/02 08:20:53;;;;;;;7.20;4.05;;;15.10;99.90;;;;;;5039150;28;20677;-81
2022/05/02 08:29:43;;;;;;;5.70;3.97;;;15.50;99.90;;;;;;5023245;28;20244;-81
2022/05/02 08:32:17;;;;;;;4.63;3.88;;;15.80;99.90;;;;;;5041311;28;20230;-83
2022/05/02 08:34:45;;;;;;;4.78;4.35;;;15.70;99.90;;;;;;5038542;28;20183;-83
2022/05/02 08:37:30;;;;;;;6.25;4.00;;;16.00;99.90;;;;;;5038141;28;20187;-81
2022/05/02 08:40:12;;;;;;;4.57;3.90;;;16.10;99.90;;;;;;5038662;28;20229;-81
2022/05/02 08:43:08;;;;;;;6.07;4.13;;;16.20;99.90;;;;;;5023373;28;20202;-82
2022/05/02 08:45:52;;;;;;;4.75;3.92;;;16.30;99.90;;;;;;5042309;28;20222;-83
2022/05/02 08:48:46;;;;;;;5.20;3.97;;;16.50;99.90;;;;;;5041193;28;20648;-82
2022/05/02 08:51:40;;;;;;;4.68;3.33;;;16.30;99.90;;;;;;5038959;28;20289;-81
2022/05/02 08:54:27;;;;;;;4.68;3.05;;;16.90;99.90;;;;;;5024027;28;20187;-82
2022/05/02 08:57:31;;;;;;;4.40;3.30;;;17.20;99.90;;;;;;5038358;28;21276;-81
2022/05/02 09:00:14;;;;;;;7.05;3.60;;;17.50;99.90;;;;;;5007677;28;20198;-81
2022/05/02 09:03:12;;;;;;;6.07;3.58;;;17.80;99.90;;;;;;5041774;28;20202;-83
2022/05/02 09:06:18;;;;;;;3.42;3.03;;;17.90;99.90;;;;;;5027692;28;20186;-82
2022/05/02 09:09:06;;;;;;;4.07;3.35;;;18.00;99.90;;;;;;5040451;28;20259;-85
2022/05/02 09:11:56;;;;;;;3.58;3.28;;;17.40;99.90;;;;;;5026059;28;20219;-84
2022/05/02 09:14:30;;;;;;;4.90;3.50;;;17.50;99.90;;;;;;5040175;28;20557;-81
2022/05/02 09:17:31;;;;;;;3.95;3.17;;;18.00;99.90;;;;;;5040425;28;20196;-82
2022/05/02 09:20:24;;;;;;;4.30;3.20;;;18.20;99.90;;;;;;5023837;28;20736;-81
2022/05/02 09:23:11;;;;;;;3.28;2.97;;;18.00;99.90;;;;;;5038932;28;20215;-81
2022/05/02 09:25:58;;;;;;;3.45;3.15;;;18.00;99.90;;;;;;5040452;28;20277;-80
2022/05/02 09:28:32;;;;;;;4.40;3.30;;;18.30;99.90;;;;;;5039789;28;20179;-82
2022/05/02 09:31:19;;;;;;;4.30;3.42;;;17.90;99.90;;;;;;5026113;28;20175;-81
2022/05/02 09:34:20;;;;;;;4.75;3.55;;;18.10;99.90;;;;;;5025328;28;20633;-82
2022/05/02 09:37:11;;;;;;;4.47;3.80;;;17.30;99.90;;;;;;5026821;28;20189;-83
2022/05/02 09:39:44;;;;;;;4.10;3.70;;;17.30;99.90;;;;;;5024260;28;20615;-83
2022/05/02 09:42:43;;;;;;;4.38;3.13;;;18.10;99.90;;;;;;5044885;28;20297;-82
2022/05/02 09:51:48;;;;;;;4.50;3.25;;;18.90;99.90;;;;;;5029460;28;20677;-80
2022/05/02 09:57:44;;;;;;;4.65;3.42;;;19.00;99.30;;;;;;5026611;28;20202;-83
2022/05/02 10:03:25;;;;;;;3.92;3.55;;;18.50;99.90;;;;;;5025408;28;20325;-83
2022/05/02 10:06:04;;;;;;;5.72;3.80;;;18.50;99.90;;;;;;5021659;28;20205;-82
2022/05/02 10:08:37;;;;;;;3.90;3.45;;;18.20;99.90;;;;;;5025776;28;20236;-82
2022/05/02 10:11:15;;;;;;;4.00;3.60;;;18.30;99.90;;;;;;5041087;28;20210;-82
2022/05/02 10:14:13;;;;;;;5.10;3.25;;;18.60;99.90;;;;;;5041275;28;20244;-81
2022/05/02 10:16:54;;;;;;;5.45;3.58;;;18.70;97.60;;;;;;5007796;28;20198;-82
2022/05/02 10:19:43;;;;;;;6.50;3.67;;;19.00;97.00;;;;;;5024452;28;20187;-83
2022/05/02 10:22:23;;;;;;;5.25;4.00;;;19.50;97.80;;;;;;5040095;28;20206;-82
2022/05/02 10:25:02;;;;;;;5.20;3.72;;;19.40;96.80;;;;;;5040040;28;20954;-83
2022/05/02 10:27:46;;;;;;;5.90;4.05;;;19.10;96.70;;;;;;5040511;28;20248;-82
2022/05/02 10:30:12;;;;;;;5.20;3.42;;;19.40;98.50;;;;;;5025047;28;20241;-82
2022/05/02 10:32:43;;;;;;;5.38;4.05;;;20.20;97.90;;;;;;5040156;28;20320;-83
2022/05/02 10:35:17;;;;;;;5.57;3.97;;;20.60;95.70;;;;;;5040176;28;20191;-84
2022/05/02 10:37:58;;;;;;;6.55;4.00;;;20.00;94.80;;;;;;5025180;28;20194;-84
2022/05/02 10:40:30;;;;;;;4.25;3.85;;;19.50;97.30;;;;;;5040016;28;20277;-82
2022/05/02 10:42:57;;;;;;;7.32;3.67;;;20.30;96.80;;;;;;5040398;28;20566;-83
2022/05/02 10:45:27;;;;;;;5.63;4.32;;;20.60;95.50;;;;;;5040176;28;20540;-83
2022/05/02 10:48:11;;;;;;;4.43;3.80;;;20.50;94.20;;;;;;5040750;28;20657;-83
2022/05/02 10:50:37;;;;;;;4.60;4.05;;;20.40;95.00;;;;;;5040231;28;20191;-84
2022/05/02 10:53:24;;;;;;;5.57;4.38;;;20.50;92.70;;;;;;5037536;28;20241;-84
2022/05/02 10:56:16;;;;;;;5.68;4.68;;;20.20;92.40;;;;;;5039460;28;20183;-82
2022/05/02 10:58:44;;;;;;;5.45;3.90;;;19.80;92.10;;;;;;5039562;28;20217;-83
2022/05/02 11:01:45;;;;;;;4.78;4.30;;;20.20;92.00;;;;;;5039579;28;20268;-83
2022/05/02 11:04:16;;;;;;;5.22;4.72;;;20.10;91.60;;;;;;5039867;28;20880;-83
2022/05/02 11:07:00;;;;;;;6.75;4.38;;;19.80;92.80;;;;;;5039190;28;20182;-83
2022/05/02 11:09:52;;;;;;;8.25;4.90;;;19.60;91.90;;;;;;5039825;28;20214;-83
2022/05/02 11:12:22;;;;;;;6.78;4.60;;;19.40;93.10;;;;;;5025194;28;20242;-83
2022/05/02 11:15:05;;;;;;;5.35;4.60;;;19.50;92.10;;;;;;5024596;28;20193;-85
2022/05/02 11:17:49;;;;;;;5.72;4.47;;;19.30;91.50;;;;;;5039047;28;20282;-83
2022/05/02 11:20:43;;;;;;;5.63;4.38;;;19.60;90.80;;;;;;5039089;28;20190;-80
2022/05/02 11:23:27;;;;;;;5.68;4.55;;;20.00;90.20;;;;;;5041190;28;20692;-83
2022/05/02 11:26:17;;;;;;;6.47;4.70;;;19.80;88.30;;;;;;5040693;28;20187;-86
2022/05/02 11:29:07;;;;;;;5.47;4.55;;;19.80;90.60;;;;;;5041103;28;20187;-84
2022/05/02 11:31:51;;;;;;;7.97;4.57;;;19.60;91.10;;;;;;5040442;28;20199;-84
2022/05/02 11:34:52;;;;;;;6.55;4.30;;;19.80;91.50;;;;;;5028359;28;20730;-84
2022/05/02 11:37:36;;;;;;;4.55;4.15;;;20.00;91.80;;;;;;5046537;28;20191;-85
2022/05/02 11:40:11;;;;;;;4.72;3.90;;;20.40;91.70;;;;;;5043763;28;20555;-83
2022/05/02 11:42:46;;;;;;;5.18;4.30;;;20.50;91.60;;;;;;5043323;28;20210;-82
2022/05/02 11:45:17;;;;;;;5.60;4.30;;;20.50;91.10;;;;;;5044212;28;20228;-84
2022/05/02 11:47:54;;;;;;;5.57;4.07;;;20.60;90.60;;;;;;5044102;28;20183;-82
2022/05/02 11:50:25;;;;;;;4.90;4.40;;;20.80;90.90;;;;;;5029492;28;20182;-82
2022/05/02 11:52:53;;;;;;;5.85;4.93;;;20.90;90.00;;;;;;5044920;28;20202;-82
2022/05/02 11:55:28;;;;;;;7.10;4.50;;;20.70;89.40;;;;;;5046341;28;20183;-82
2022/05/02 11:58:03;;;;;;;5.50;4.03;;;20.70;88.90;;;;;;5031644;28;20209;-85
2022/05/02 12:00:34;;;;;;;9.88;5.13;;;20.80;90.60;;;;;;5048403;28;20186;-83
2022/05/02 12:03:03;;;;;;;6.00;4.05;;;20.90;89.90;;;;;;5046354;28;20210;-82
2022/05/02 12:05:43;;;;;;;5.38;4.47;;;20.80;88.70;;;;;;5046733;28;20241;-83
2022/05/02 12:08:20;;;;;;;5.63;4.53;;;20.80;90.00;;;;;;5046202;28;20190;-83
2022/05/02 12:10:47;;;;;;;6.28;4.63;;;20.20;90.40;;;;;;5038526;28;20195;-81
2022/05/02 12:13:20;;;;;;;7.13;4.78;;;19.80;90.80;;;;;;5048188;28;20218;-82
2022/05/02 12:16:03;;;;;;;4.75;4.18;;;20.10;90.80;;;;;;5024410;28;20217;-81
2022/05/02 12:18:43;;;;;;;6.40;4.50;;;19.70;89.60;;;;;;5025387;28;20591;-81
2022/05/02 12:21:16;;;;;;;5.43;4.18;;;19.80;90.70;;;;;;5039464;28;20676;-81
2022/05/02 12:23:43;;;;;;;7.03;4.60;;;20.20;90.20;;;;;;5023667;28;20626;-81
2022/05/02 12:26:21;;;;;;;6.40;4.45;;;20.40;89.20;;;;;;5039142;28;20186;-82
2022/05/02 12:28:49;;;;;;;5.30;4.45;;;20.50;89.20;;;;;;5039715;28;20186;-82
2022/05/02 12:31:29;;;;;;;4.85;4.13;;;20.30;89.30;;;;;;5037472;28;20293;-81
2022/05/02 12:34:02;;;;;;;5.63;4.15;;;20.10;90.00;;;;;;5039024;28;20190;-82
2022/05/02 12:36:56;;;;;;;6.70;4.47;;;19.90;90.60;;;;;;5023705;28;20597;-82
2022/05/02 12:39:34;;;;;;;6.35;4.43;;;19.50;90.40;;;;;;5022070;28;20631;-82
2022/05/02 12:42:15;;;;;;;5.88;3.80;;;19.80;89.40;;;;;;5023762;28;20509;-82
2022/05/02 12:44:48;;;;;;;5.85;4.53;;;20.00;87.70;;;;;;5023013;28;20217;-82
2022/05/02 12:47:21;;;;;;;4.95;4.45;;;19.90;89.30;;;;;;5038229;28;20669;-82
2022/05/02 12:50:17;;;;;;;5.05;4.55;;;20.20;90.20;;;;;;5038066;28;20195;-82
2022/05/02 12:52:49;;;;;;;5.18;4.43;;;20.50;88.00;;;;;;5021015;28;20230;-81
2022/05/02 12:55:16;;;;;;;6.28;4.50;;;20.50;86.40;;;;;;5039231;28;20210;-82
2022/05/02 13:00:36;;;;;;;9.05;4.47;;;20.40;85.40;;;;;;5024426;28;20663;-81
2022/05/02 13:03:10;;;;;;;4.93;4.18;;;20.50;87.20;;;;;;5038814;28;20214;-82
2022/05/02 13:05:39;;;;;;;6.20;4.85;;;20.60;87.00;;;;;;5038567;28;20214;-82
2022/05/02 13:08:11;;;;;;;5.63;4.47;;;20.80;86.50;;;;;;5038460;28;20179;-82
2022/05/02 13:10:39;;;;;;;6.20;4.35;;;20.70;83.10;;;;;;5043161;28;20466;-82
2022/05/02 13:13:06;;;;;;;5.07;4.57;;;20.40;85.90;;;;;;5042432;28;20210;-82
2022/05/02 13:15:47;;;;;;;7.28;4.53;;;20.20;84.80;;;;;;5043684;28;20187;-81
2022/05/02 13:18:16;;;;;;;8.30;5.43;;;20.20;85.70;;;;;;5026670;28;20187;-82
2022/05/02 13:20:55;;;;;;;5.05;4.55;;;20.50;85.00;;;;;;5041623;28;20671;-82
2022/05/02 13:23:22;;;;;;;4.30;3.90;;;20.70;85.00;;;;;;5040054;28;20229;-81
2022/05/02 13:26:10;;;;;;;4.85;3.83;;;20.70;86.40;;;;;;5025350;28;20183;-82
2022/05/02 13:29:01;;;;;;;6.00;4.68;;;20.90;84.50;;;;;;5042293;28;20189;-82
2022/05/02 13:31:56;;;;;;;6.47;4.55;;;20.80;83.10;;;;;;5041376;28;20212;-82
2022/05/02 13:34:45;;;;;;;7.22;4.70;;;20.70;85.00;;;;;;5041036;28;20194;-82
2022/05/02 13:37:22;;;;;;;5.10;4.25;;;21.00;81.90;;;;;;5025009;28;20189;-81
2022/05/02 13:40:09;;;;;;;5.80;4.50;;;21.30;81.90;;;;;;5039416;28;20197;-82
2022/05/02 13:42:59;;;;;;;5.72;4.20;;;21.00;80.90;;;;;;5038543;28;20618;-82
2022/05/02 13:45:54;;;;;;;7.72;4.25;;;21.20;80.50;;;;;;5039300;28;20183;-81
2022/05/02 13:49:06;;;;;;;5.43;4.25;;;21.20;80.50;;;;;;5039874;28;20704;-80
2022/05/02 13:51:38;;;;;;;5.15;4.28;;;21.10;81.90;;;;;;5016093;28;20245;-80
2022/05/02 13:54:12;;;;;;;5.78;4.40;;;21.20;82.80;;;;;;5023865;28;20676;-81
2022/05/02 13:57:05;;;;;;;6.78;4.10;;;21.10;82.50;;;;;;5040051;28;20620;-82
2022/05/02 13:59:37;;;;;;;4.43;3.97;;;21.10;82.00;;;;;;5041146;28;20183;-82
2022/05/02 14:02:20;;;;;;;6.32;4.32;;;21.50;81.40;;;;;;5040991;28;20301;-82